createdAt,value
2018-02-19T00:00:04.938Z,33.67
2018-02-19T00:02:32.362Z,33.80
2018-02-19T00:04:59.793Z,33.72
2018-02-19T00:07:27.644Z,35.17
2018-02-19T00:09:55.066Z,35.67
2018-02-19T00:12:22.485Z,36.15
2018-02-19T00:14:49.927Z,34.75
2018-02-19T00:17:17.346Z,36.03
2018-02-19T00:19:44.786Z,35.40
2018-02-19T00:22:12.217Z,32.85
2018-02-19T00:24:39.641Z,35.42
2018-02-19T00:27:07.072Z,35.80
2018-02-19T00:29:34.551Z,35.20
2018-02-19T00:32:01.978Z,36.80
2018-02-19T00:34:29.401Z,36.53
2018-02-19T00:36:56.841Z,36.78
2018-02-19T00:39:24.283Z,34.30
2018-02-19T00:41:51.698Z,35.55
2018-02-19T00:44:19.118Z,36.78
2018-02-19T00:46:46.545Z,35.00
2018-02-19T00:49:13.994Z,36.13
2018-02-19T00:51:41.414Z,38.60
2018-02-19T00:54:08.822Z,37.28
2018-02-19T00:56:36.242Z,36.25
2018-02-19T00:59:03.665Z,35.22
2018-02-19T01:01:31.095Z,37.97
2018-02-19T01:03:58.517Z,35.67
2018-02-19T01:06:25.949Z,37.30
2018-02-19T01:08:53.362Z,35.47
2018-02-19T01:11:20.782Z,39.78
2018-02-19T01:13:48.193Z,37.67
2018-02-19T01:16:15.610Z,37.53
2018-02-19T01:18:43.042Z,37.35
2018-02-19T01:21:10.459Z,40.70
2018-02-19T01:23:37.873Z,40.05
2018-02-19T01:26:05.300Z,40.70
2018-02-19T01:28:32.727Z,39.25
2018-02-19T01:31:00.137Z,40.92
2018-02-19T01:33:27.555Z,40.33
2018-02-19T01:35:54.982Z,41.80
2018-02-19T01:38:22.397Z,40.58
2018-02-19T01:40:49.814Z,40.20
2018-02-19T01:43:17.249Z,41.88
2018-02-19T01:45:44.668Z,41.03
2018-02-19T01:48:12.096Z,42.03
2018-02-19T01:50:39.505Z,39.75
2018-02-19T01:53:06.935Z,42.90
2018-02-19T01:55:34.358Z,42.33
2018-02-19T01:58:01.794Z,40.20
2018-02-19T02:00:29.213Z,43.45
2018-02-19T02:02:56.632Z,42.33
2018-02-19T02:05:24.050Z,40.05
2018-02-19T02:07:51.473Z,42.85
2018-02-19T02:10:18.894Z,40.83
2018-02-19T02:12:46.314Z,38.78
2018-02-19T02:15:13.746Z,40.70
2018-02-19T02:17:41.174Z,40.10
2018-02-19T02:20:08.593Z,41.70
2018-02-19T02:22:36.074Z,38.65
2018-02-19T02:25:03.491Z,39.35
2018-02-19T02:27:30.920Z,38.38
2018-02-19T02:29:58.329Z,40.25
2018-02-19T02:32:25.786Z,40.63
2018-02-19T02:34:53.215Z,39.90
2018-02-19T02:37:20.625Z,40.53
2018-02-19T02:39:48.060Z,39.72
2018-02-19T02:42:15.475Z,39.92
2018-02-19T02:44:42.895Z,39.35
2018-02-19T02:47:10.316Z,38.78
2018-02-19T02:49:37.747Z,41.10
2018-02-19T02:52:05.169Z,39.65
2018-02-19T02:54:32.578Z,40.42
2018-02-19T02:57:00.014Z,38.08
2018-02-19T02:59:27.435Z,39.90
2018-02-19T03:01:54.854Z,41.20
2018-02-19T03:04:22.279Z,40.28
2018-02-19T03:06:49.706Z,38.90
2018-02-19T03:09:17.140Z,38.45
2018-02-19T03:11:44.541Z,40.72
2018-02-19T03:14:11.968Z,41.60
2018-02-19T03:16:39.381Z,40.80
2018-02-19T03:19:06.821Z,40.12
2018-02-19T03:21:34.234Z,38.78
2018-02-19T03:24:01.662Z,36.13
2018-02-19T03:26:29.074Z,39.53
2018-02-19T03:28:56.499Z,38.58
2018-02-19T03:31:23.919Z,37.35
2018-02-19T03:33:51.337Z,37.13
2018-02-19T03:36:18.778Z,37.25
2018-02-19T03:38:46.204Z,37.60
2018-02-19T03:41:13.635Z,37.15
2018-02-19T03:43:41.054Z,35.55
2018-02-19T03:46:08.469Z,37.35
2018-02-19T03:48:35.895Z,37.88
2018-02-19T03:51:03.323Z,36.97
2018-02-19T03:53:30.752Z,36.95
2018-02-19T03:55:58.169Z,37.28
2018-02-19T03:58:25.599Z,36.60
2018-02-19T04:00:53.015Z,36.03
2018-02-19T04:03:20.430Z,35.53
2018-02-19T04:05:47.854Z,37.88
2018-02-19T04:08:15.313Z,36.10
2018-02-19T04:10:42.740Z,37.20
2018-02-19T04:13:10.170Z,36.60
2018-02-19T04:15:37.828Z,37.08
2018-02-19T04:18:05.255Z,39.65
2018-02-19T04:20:32.682Z,36.55
2018-02-19T04:23:00.111Z,37.53
2018-02-19T04:25:27.526Z,35.05
2018-02-19T04:27:54.980Z,35.85
2018-02-19T04:30:22.389Z,37.80
2018-02-19T04:32:49.818Z,35.80
2018-02-19T04:35:17.245Z,33.85
2018-02-19T04:37:44.694Z,37.35
2018-02-19T04:40:12.118Z,37.15
2018-02-19T04:42:39.529Z,37.67
2018-02-19T04:48:05.993Z,37.22
2018-02-19T04:50:33.435Z,35.10
2018-02-19T04:53:00.886Z,35.08
2018-02-19T04:55:28.321Z,34.00
2018-02-19T04:57:55.745Z,33.75
2018-02-19T05:00:23.166Z,34.55
2018-02-19T05:02:50.590Z,33.83
2018-02-19T05:05:18.002Z,31.33
2018-02-19T05:07:45.442Z,33.97
2018-02-19T05:10:12.863Z,32.63
2018-02-19T05:12:40.348Z,30.65
2018-02-19T05:15:07.766Z,32.17
2018-02-19T05:17:35.181Z,32.58
2018-02-19T05:20:02.674Z,30.77
2018-02-19T05:22:30.089Z,31.65
2018-02-19T05:24:57.506Z,30.95
2018-02-19T05:27:24.929Z,30.10
2018-02-19T05:29:52.351Z,31.50
2018-02-19T05:32:19.782Z,32.92
2018-02-19T05:34:47.212Z,31.20
2018-02-19T05:37:15.358Z,32.67
2018-02-19T05:39:42.779Z,30.55
2018-02-19T05:42:10.195Z,29.75
2018-02-19T05:44:37.639Z,30.50
2018-02-19T05:47:05.042Z,31.23
2018-02-19T05:49:32.473Z,29.48
2018-02-19T05:51:59.898Z,29.58
2018-02-19T05:54:27.339Z,29.80
2018-02-19T05:56:54.759Z,29.50
2018-02-19T05:59:22.194Z,29.70
2018-02-19T06:01:49.874Z,31.45
2018-02-19T06:04:17.285Z,30.77
2018-02-19T06:06:44.722Z,30.23
2018-02-19T06:09:12.139Z,29.67
2018-02-19T06:11:39.556Z,29.77
2018-02-19T06:14:06.986Z,30.67
2018-02-19T06:16:34.401Z,28.80
2018-02-19T06:19:01.826Z,30.08
2018-02-19T06:21:29.245Z,31.70
2018-02-19T06:23:56.677Z,31.15
2018-02-19T06:26:24.109Z,32.55
2018-02-19T06:28:51.536Z,31.65
2018-02-19T06:31:18.982Z,30.42
2018-02-19T06:33:46.392Z,29.95
2018-02-19T06:36:13.844Z,31.33
2018-02-19T06:38:41.278Z,31.02
2018-02-19T06:41:08.735Z,31.27
2018-02-19T06:43:36.158Z,31.65
2018-02-19T06:46:03.594Z,30.60
2018-02-19T06:48:31.033Z,31.55
2018-02-19T06:50:58.461Z,31.48
2018-02-19T06:53:25.882Z,32.10
2018-02-19T06:55:53.302Z,31.65
2018-02-19T06:58:20.749Z,32.17
2018-02-19T07:00:48.178Z,32.88
2018-02-19T07:03:15.620Z,31.17
2018-02-19T07:05:43.026Z,33.25
2018-02-19T07:08:10.494Z,32.03
2018-02-19T07:10:37.963Z,33.03
2018-02-19T07:13:05.441Z,31.92
2018-02-19T07:15:32.893Z,33.35
2018-02-19T07:18:00.337Z,31.90
2018-02-19T07:20:30.691Z,32.55
2018-02-19T07:22:58.107Z,32.13
2018-02-19T07:25:25.529Z,31.60
2018-02-19T07:27:52.961Z,28.92
2018-02-19T07:30:20.410Z,30.83
2018-02-19T07:32:47.845Z,30.62
2018-02-19T07:35:15.287Z,29.02
2018-02-19T07:37:42.754Z,30.40
2018-02-19T07:40:10.175Z,30.50
2018-02-19T07:42:37.598Z,31.15
2018-02-19T07:45:05.022Z,31.40
2018-02-19T07:47:32.446Z,32.70
2018-02-19T07:49:59.867Z,31.12
2018-02-19T07:52:27.302Z,31.52
2018-02-19T07:54:54.719Z,30.85
2018-02-19T07:57:22.142Z,28.62
2018-02-19T07:59:49.562Z,30.92
2018-02-19T08:02:16.985Z,30.98
2018-02-19T08:04:44.400Z,29.52
2018-02-19T08:07:11.818Z,29.98
2018-02-19T08:09:39.250Z,30.33
2018-02-19T08:12:06.666Z,30.37
2018-02-19T08:14:34.095Z,31.42
2018-02-19T08:17:01.516Z,30.67
2018-02-19T08:19:28.934Z,30.55
2018-02-19T08:21:56.362Z,31.10
2018-02-19T08:24:23.783Z,29.50
2018-02-19T08:26:51.217Z,29.15
2018-02-19T08:29:18.635Z,29.12
2018-02-19T08:31:46.059Z,30.17
2018-02-19T08:34:13.486Z,30.75
2018-02-19T08:36:40.910Z,31.87
2018-02-19T08:39:08.345Z,32.08
2018-02-19T08:41:35.768Z,31.00
2018-02-19T08:44:03.186Z,31.62
2018-02-19T08:46:30.622Z,31.85
2018-02-19T08:48:58.063Z,31.12
2018-02-19T08:51:25.466Z,30.45
2018-02-19T08:53:52.890Z,31.20
2018-02-19T08:56:20.330Z,31.10
2018-02-19T08:58:47.870Z,28.65
2018-02-19T09:01:15.306Z,30.62
2018-02-19T09:03:42.736Z,31.62
2018-02-19T09:06:10.158Z,30.98
2018-02-19T09:08:37.590Z,29.73
2018-02-19T09:11:05.025Z,30.12
2018-02-19T09:13:32.454Z,29.92
2018-02-19T09:15:59.946Z,30.55
2018-02-19T09:18:27.358Z,27.83
2018-02-19T09:20:54.794Z,29.87
2018-02-19T09:23:22.244Z,30.00
2018-02-19T09:25:49.670Z,30.90
2018-02-19T09:28:17.106Z,27.42
2018-02-19T09:30:44.558Z,29.05
2018-02-19T09:33:11.993Z,29.67
2018-02-19T09:35:39.426Z,27.90
2018-02-19T09:38:06.863Z,28.80
2018-02-19T09:40:34.325Z,27.92
2018-02-19T09:43:01.766Z,30.12
2018-02-19T09:45:29.240Z,30.75
2018-02-19T09:47:56.671Z,29.52
2018-02-19T09:50:24.142Z,28.10
2018-02-19T09:52:51.579Z,30.02
2018-02-19T09:55:19.037Z,28.55
2018-02-19T09:57:46.463Z,29.98
2018-02-19T10:00:13.894Z,29.85
2018-02-19T10:02:41.326Z,29.55
2018-02-19T10:05:08.745Z,30.50
2018-02-19T10:07:36.166Z,30.20
2018-02-19T10:10:03.924Z,28.80
2018-02-19T10:12:31.302Z,28.43
2018-02-19T10:14:58.718Z,29.70
2018-02-19T10:17:26.143Z,31.27
2018-02-19T10:19:53.551Z,28.57
2018-02-19T10:22:20.978Z,30.40
2018-02-19T10:24:48.394Z,28.80
2018-02-19T10:27:15.806Z,28.13
2018-02-19T10:29:43.255Z,29.80
2018-02-19T10:32:10.650Z,28.40
2018-02-19T10:34:38.070Z,27.67
2018-02-19T10:37:05.482Z,28.27
2018-02-19T10:39:32.901Z,27.60
2018-02-19T10:42:00.314Z,29.70
2018-02-19T10:44:27.732Z,27.30
2018-02-19T10:46:55.150Z,28.10
2018-02-19T10:49:22.562Z,27.00
2018-02-19T10:51:49.979Z,28.70
2018-02-19T10:54:17.391Z,30.17
2018-02-19T10:56:44.817Z,29.37
2018-02-19T10:59:12.237Z,29.50
2018-02-19T11:01:39.646Z,28.27
2018-02-19T11:04:07.074Z,28.90
2018-02-19T11:06:34.482Z,29.80
2018-02-19T11:09:01.906Z,28.70
2018-02-19T11:11:29.314Z,27.90
2018-02-19T11:13:56.737Z,28.70
2018-02-19T11:16:24.146Z,28.87
2018-02-19T11:18:51.557Z,28.47
2018-02-19T11:21:18.979Z,29.00
2018-02-19T11:23:46.398Z,29.23
2018-02-19T11:26:13.822Z,29.50
2018-02-19T11:28:41.237Z,29.70
2018-02-19T11:31:08.650Z,29.93
2018-02-19T11:33:36.068Z,26.40
2018-02-19T11:36:03.478Z,28.10
2018-02-19T11:38:30.918Z,29.80
2018-02-19T11:40:58.330Z,28.90
2018-02-19T11:43:25.738Z,29.23
2018-02-19T11:45:53.161Z,28.67
2018-02-19T11:48:20.568Z,28.90
2018-02-19T11:50:47.990Z,30.53
2018-02-19T11:53:15.402Z,29.40
2018-02-19T11:55:42.829Z,27.73
2018-02-19T11:58:10.246Z,28.90
2018-02-19T12:00:37.658Z,28.73
2018-02-19T12:03:05.086Z,28.43
2018-02-19T12:05:32.506Z,28.20
2018-02-19T12:08:01.551Z,27.57
2018-02-19T12:10:28.974Z,26.27
2018-02-19T12:12:56.411Z,28.03
2018-02-19T12:15:23.818Z,28.40
2018-02-19T12:17:51.234Z,25.73
2018-02-19T12:20:18.656Z,26.20
2018-02-19T12:22:46.078Z,25.70
2018-02-19T12:25:13.502Z,25.33
2018-02-19T12:27:40.911Z,28.43
2018-02-19T12:30:08.345Z,28.47
2018-02-19T12:32:35.762Z,29.37
2018-02-19T12:35:03.171Z,29.40
2018-02-19T12:37:30.586Z,27.80
2018-02-19T12:39:58.004Z,28.73
2018-02-19T12:42:25.417Z,26.80
2018-02-19T12:44:52.831Z,29.30
2018-02-19T12:47:20.269Z,27.17
2018-02-19T12:49:47.682Z,28.10
2018-02-19T12:52:15.094Z,26.07
2018-02-19T12:54:42.517Z,25.50
2018-02-19T12:57:09.927Z,27.07
2018-02-19T12:59:37.347Z,25.83
2018-02-19T13:02:04.766Z,26.80
2018-02-19T13:04:32.199Z,26.70
2018-02-19T13:06:59.614Z,26.40
2018-02-19T13:09:27.085Z,27.07
2018-02-19T13:11:54.511Z,26.97
2018-02-19T13:14:21.918Z,26.50
2018-02-19T13:16:49.343Z,26.87
2018-02-19T13:19:16.758Z,27.30
2018-02-19T13:21:44.169Z,29.13
2018-02-19T13:24:11.595Z,28.10
2018-02-19T13:26:39.010Z,28.33
2018-02-19T13:29:06.430Z,26.40
2018-02-19T13:31:33.842Z,27.63
2018-02-19T13:34:01.279Z,27.53
2018-02-19T13:36:28.701Z,27.43
2018-02-19T13:38:56.094Z,26.57
2018-02-19T13:41:23.515Z,26.63
2018-02-19T13:43:50.930Z,25.77
2018-02-19T13:46:18.366Z,25.90
2018-02-19T13:48:45.781Z,25.93
2018-02-19T13:51:13.201Z,26.00
2018-02-19T13:53:40.624Z,28.00
2018-02-19T13:56:08.034Z,29.20
2018-02-19T13:58:35.458Z,27.50
2018-02-19T14:01:02.867Z,28.67
2018-02-19T14:03:30.285Z,26.70
2018-02-19T14:05:57.705Z,29.00
2018-02-19T14:08:25.114Z,26.00
2018-02-19T14:10:52.542Z,29.67
2018-02-19T14:13:19.954Z,28.00
2018-02-19T14:15:47.391Z,28.97
2018-02-19T14:18:14.806Z,27.77
2018-02-19T14:20:42.226Z,29.60
2018-02-19T14:23:09.638Z,28.43
2018-02-19T14:25:37.062Z,29.73
2018-02-19T14:28:04.491Z,29.80
2018-02-19T14:30:31.901Z,28.80
2018-02-19T14:32:59.311Z,26.93
2018-02-19T14:35:26.730Z,27.10
2018-02-19T14:37:54.144Z,28.00
2018-02-19T14:40:21.588Z,28.80
2018-02-19T14:42:49.006Z,28.27
2018-02-19T14:45:16.411Z,27.53
2018-02-19T14:47:43.826Z,27.80
2018-02-19T14:50:11.237Z,27.40
2018-02-19T14:52:38.674Z,27.23
2018-02-19T14:55:06.126Z,25.67
2018-02-19T14:57:33.530Z,29.13
2018-02-19T15:00:00.950Z,28.60
2018-02-19T15:02:28.357Z,29.87
2018-02-19T15:04:55.801Z,29.90
2018-02-19T15:07:23.218Z,27.87
2018-02-19T15:09:50.639Z,29.20
2018-02-19T15:12:18.062Z,29.40
2018-02-19T15:14:45.475Z,27.00
2018-02-19T15:17:12.899Z,27.90
2018-02-19T15:19:40.326Z,27.43
2018-02-19T15:22:07.738Z,26.97
2018-02-19T15:24:35.155Z,27.87
2018-02-19T15:27:02.570Z,29.00
2018-02-19T15:29:29.999Z,28.10
2018-02-19T15:31:57.410Z,29.33
2018-02-19T15:34:24.830Z,27.43
2018-02-19T15:36:52.255Z,28.10
2018-02-19T15:39:19.666Z,27.87
2018-02-19T15:41:47.101Z,25.97
2018-02-19T15:44:14.514Z,27.53
2018-02-19T15:46:41.918Z,26.23
2018-02-19T15:49:09.344Z,27.47
2018-02-19T15:51:36.754Z,29.17
2018-02-19T15:54:04.181Z,26.20
2018-02-19T15:56:31.598Z,29.27
2018-02-19T15:58:58.997Z,27.67
2018-02-19T16:01:26.422Z,28.30
2018-02-19T16:03:53.836Z,30.17
2018-02-19T16:06:21.266Z,28.50
2018-02-19T16:08:48.674Z,28.37
2018-02-19T16:11:16.106Z,27.73
2018-02-19T16:13:43.526Z,29.70
2018-02-19T16:16:10.934Z,26.93
2018-02-19T16:18:38.358Z,27.03
2018-02-19T16:21:05.774Z,26.77
2018-02-19T16:23:33.231Z,28.13
2018-02-19T16:26:00.605Z,27.53
2018-02-19T16:28:28.035Z,26.67
2018-02-19T16:30:55.474Z,28.43
2018-02-19T16:33:22.894Z,28.63
2018-02-19T16:35:50.311Z,28.63
2018-02-19T16:38:17.747Z,29.13
2018-02-19T16:40:45.160Z,27.60
2018-02-19T16:43:12.594Z,28.07
2018-02-19T16:45:40.007Z,27.00
2018-02-19T16:48:07.425Z,27.97
2018-02-19T16:50:34.850Z,27.20
2018-02-19T16:53:02.278Z,28.70
2018-02-19T16:55:29.687Z,29.93
2018-02-19T16:57:57.094Z,28.20
2018-02-19T17:00:24.510Z,28.30
2018-02-19T17:02:51.933Z,27.17
2018-02-19T17:05:19.346Z,26.27
2018-02-19T17:07:46.785Z,28.00
2018-02-19T17:10:14.194Z,29.20
2018-02-19T17:12:41.603Z,29.00
2018-02-19T17:15:09.018Z,28.10
2018-02-19T17:17:36.446Z,30.03
2018-02-19T17:20:03.886Z,29.57
2018-02-19T17:22:31.301Z,28.93
2018-02-19T17:24:58.718Z,29.80
2018-02-19T17:27:26.153Z,28.00
2018-02-19T17:29:53.574Z,30.20
2018-02-19T17:32:20.998Z,29.40
2018-02-19T17:34:48.650Z,30.00
2018-02-19T17:37:16.069Z,28.67
2018-02-19T17:39:43.499Z,30.60
2018-02-19T17:42:10.948Z,31.47
2018-02-19T17:44:38.377Z,31.10
2018-02-19T17:47:05.798Z,28.97
2018-02-19T17:49:33.224Z,28.30
2018-02-19T17:52:00.646Z,29.20
2018-02-19T17:54:28.061Z,29.57
2018-02-19T17:56:55.497Z,29.23
2018-02-19T17:59:22.914Z,29.50
2018-02-19T18:01:50.343Z,28.20
2018-02-19T18:04:17.762Z,28.47
2018-02-19T18:06:45.174Z,30.87
2018-02-19T18:09:12.598Z,30.77
2018-02-19T18:11:40.015Z,29.60
2018-02-19T18:14:07.426Z,29.70
2018-02-19T18:16:34.863Z,28.10
2018-02-19T18:19:02.290Z,29.37
2018-02-19T18:21:29.718Z,29.73
2018-02-19T18:23:57.122Z,30.50
2018-02-19T18:26:24.535Z,31.00
2018-02-19T18:28:51.954Z,31.13
2018-02-19T18:31:19.367Z,30.00
2018-02-19T18:33:46.802Z,29.40
2018-02-19T18:36:14.218Z,29.57
2018-02-19T18:38:41.632Z,30.53
2018-02-19T18:41:09.045Z,31.43
2018-02-19T18:43:36.459Z,29.93
2018-02-19T18:46:03.902Z,28.87
2018-02-19T18:48:31.315Z,29.03
2018-02-19T18:50:58.740Z,30.70
2018-02-19T18:53:26.239Z,31.07
2018-02-19T18:55:53.665Z,30.60
2018-02-19T18:58:21.114Z,32.63
2018-02-19T19:00:48.526Z,28.07
2018-02-19T19:03:15.942Z,28.70
2018-02-19T19:05:43.369Z,30.13
2018-02-19T19:08:22.388Z,30.20
2018-02-19T19:10:52.322Z,31.73
2018-02-19T19:13:19.734Z,33.63
2018-02-19T19:15:47.179Z,33.30
2018-02-19T19:18:14.695Z,32.53
2018-02-19T19:20:42.101Z,33.00
2018-02-19T19:23:09.531Z,35.07
2018-02-19T19:25:36.942Z,32.97
2018-02-19T19:28:04.371Z,32.13
2018-02-19T19:30:32.738Z,32.17
2018-02-19T19:33:00.147Z,32.73
2018-02-19T19:35:27.665Z,34.80
2018-02-19T19:37:55.074Z,33.37
2018-02-19T19:40:22.541Z,35.50
2018-02-19T19:42:50.047Z,32.43
2018-02-19T19:45:17.462Z,34.30
2018-02-19T19:47:44.881Z,34.10
2018-02-19T19:50:12.504Z,33.93
2018-02-19T19:52:39.958Z,31.43
2018-02-19T19:55:07.397Z,32.70
2018-02-19T19:57:34.818Z,35.13
2018-02-19T20:00:02.271Z,34.90
2018-02-19T20:02:29.771Z,37.70
2018-02-19T20:04:57.468Z,33.83
2018-02-19T20:07:24.876Z,34.40
2018-02-19T20:09:52.355Z,35.80
2018-02-19T20:12:19.761Z,34.57
2018-02-19T20:14:47.206Z,39.60
2018-02-19T20:17:16.510Z,39.23
2018-02-19T20:19:43.914Z,40.37
2018-02-19T20:22:11.334Z,40.37
2018-02-19T20:24:38.754Z,43.10
2018-02-19T20:27:06.171Z,46.83
2018-02-19T20:29:33.582Z,43.57
2018-02-19T20:32:01.022Z,42.90
2018-02-19T20:34:28.441Z,41.90
2018-02-19T20:36:55.851Z,41.50
2018-02-19T20:39:23.280Z,39.92
2018-02-19T20:41:50.686Z,40.40
2018-02-19T20:44:18.101Z,42.13
2018-02-19T20:46:45.523Z,40.70
2018-02-19T20:49:12.958Z,43.70
2018-02-19T20:51:40.372Z,40.50
2018-02-19T20:54:07.791Z,38.80
2018-02-19T20:56:35.218Z,38.20
2018-02-19T20:59:02.633Z,37.57
2018-02-19T21:01:30.061Z,36.30
2018-02-19T21:03:57.470Z,36.40
2018-02-19T21:06:24.896Z,37.30
2018-02-19T21:08:52.307Z,37.37
2018-02-19T21:11:19.731Z,36.65
2018-02-19T21:13:47.164Z,38.13
2018-02-19T21:16:14.590Z,37.97
2018-02-19T21:18:42.084Z,37.92
2018-02-19T21:21:09.451Z,37.92
2018-02-19T21:23:37.307Z,36.85
2018-02-19T21:26:04.782Z,38.57
2018-02-19T21:28:32.197Z,37.22
2018-02-19T21:30:59.622Z,39.78
2018-02-19T21:33:27.046Z,37.97
2018-02-19T21:35:54.469Z,37.80
2018-02-19T21:38:21.905Z,37.42
2018-02-19T21:40:49.329Z,37.35
2018-02-19T21:43:16.762Z,34.55
2018-02-19T21:45:44.189Z,36.60
2018-02-19T21:48:11.615Z,37.03
2018-02-19T21:50:39.027Z,36.53
2018-02-19T21:53:06.454Z,37.20
2018-02-19T21:55:33.874Z,37.45
2018-02-19T21:58:01.302Z,35.40
2018-02-19T22:00:28.730Z,35.92
2018-02-19T22:02:56.168Z,35.83
2018-02-19T22:05:23.585Z,36.60
2018-02-19T22:07:51.034Z,36.33
2018-02-19T22:10:18.421Z,36.50
2018-02-19T22:12:45.846Z,36.45
2018-02-19T22:15:13.282Z,35.83
2018-02-19T22:17:40.742Z,36.00
2018-02-19T22:20:08.619Z,36.88
2018-02-19T22:22:36.048Z,36.65
2018-02-19T22:25:03.479Z,35.33
2018-02-19T22:27:30.919Z,39.05
2018-02-19T22:29:58.337Z,36.38
2018-02-19T22:32:26.050Z,35.65
2018-02-19T22:34:53.481Z,38.58
2018-02-19T22:37:21.295Z,38.42
2018-02-19T22:39:48.750Z,37.45
2018-02-19T22:42:16.429Z,38.70
2018-02-19T22:44:44.207Z,38.03
2018-02-19T22:47:11.636Z,38.67
2018-02-19T22:49:39.051Z,39.83
2018-02-19T22:52:06.563Z,38.40
2018-02-19T22:54:33.949Z,37.50
2018-02-19T22:57:01.394Z,37.63
2018-02-19T22:59:28.814Z,36.70
2018-02-19T23:01:56.229Z,37.10
2018-02-19T23:04:23.658Z,35.92
2018-02-19T23:06:51.086Z,36.47
2018-02-19T23:09:18.522Z,36.63
2018-02-19T23:11:45.948Z,34.85
2018-02-19T23:14:13.406Z,36.42
2018-02-19T23:16:40.798Z,31.95
2018-02-19T23:19:08.231Z,34.25
2018-02-19T23:21:35.674Z,33.10
2018-02-19T23:24:03.091Z,36.67
2018-02-19T23:26:30.510Z,35.17
2018-02-19T23:28:57.969Z,32.92
2018-02-19T23:31:25.389Z,33.55
2018-02-19T23:33:52.835Z,33.58
2018-02-19T23:36:20.258Z,34.15
2018-02-19T23:38:47.692Z,34.00
2018-02-19T23:41:15.113Z,35.00
2018-02-19T23:43:42.551Z,33.50
2018-02-19T23:46:09.985Z,33.92
2018-02-19T23:48:37.408Z,33.88
2018-02-19T23:51:04.837Z,32.08
2018-02-19T23:53:32.262Z,33.35
2018-02-19T23:55:59.689Z,34.28
2018-02-19T23:58:27.123Z,32.78
